Time;durP1;ratioP1;P1;durP2;ratioP2;P2;SDS_P1;SDS_P2;PMS_P1;PMS_P2;Temp;Humidity;BMP_temperature;BMP_pressure;BME280_temperature;BME280_humidity;BME280_pressure;Samples;Min_cycle;Max_cycle;Signal;HPM_P1;HPM_P2
2023/03/31 00:01:03;;;;;;;61.50;3.60;;;13.60;1.00;;;;;;5074453;28;20928;-69
2023/03/31 00:03:32;;;;;;;60.77;4.40;;;13.60;1.00;;;;;;5074404;28;20486;-69
2023/03/31 00:06:00;;;;;;;59.50;4.23;;;13.50;1.00;;;;;;5074389;28;20827;-69
2023/03/31 00:08:34;;;;;;;61.27;3.80;;;13.40;1.00;;;;;;5074465;28;20475;-69
2023/03/31 00:11:02;;;;;;;66.47;4.93;;;13.30;1.00;;;;;;5074097;28;20454;-69
2023/03/31 00:13:29;;;;;;;59.77;3.90;;;13.20;1.00;;;;;;5074384;28;20444;-69
2023/03/31 00:15:57;;;;;;;61.67;4.00;;;13.10;1.00;;;;;;5074108;28;20940;-69
2023/03/31 00:18:25;;;;;;;59.97;3.50;;;13.10;1.00;;;;;;5073868;28;20478;-69
2023/03/31 00:20:53;;;;;;;60.67;3.50;;;13.00;1.00;;;;;;5073920;28;20452;-69
2023/03/31 00:23:26;;;;;;;61.07;4.37;;;12.90;1.00;;;;;;5073996;28;20505;-69
2023/03/31 00:25:54;;;;;;;60.50;4.10;;;12.80;1.00;;;;;;5073926;28;20438;-69
2023/03/31 00:28:21;;;;;;;60.20;3.80;;;12.80;1.00;;;;;;5073999;28;20485;-69
2023/03/31 00:30:48;;;;;;;58.80;3.40;;;12.70;1.00;;;;;;5073880;28;20451;-69
2023/03/31 00:33:15;;;;;;;62.50;4.10;;;12.70;1.00;;;;;;5073847;28;20450;-69
2023/03/31 00:35:42;;;;;;;60.50;4.40;;;12.60;1.00;;;;;;5073859;28;20450;-69
2023/03/31 00:38:12;;;;;;;62.07;4.40;;;12.60;1.00;;;;;;5073525;28;20506;-69
2023/03/31 00:40:45;;;;;;;58.70;3.77;;;12.50;1.00;;;;;;5073745;28;20451;-68
2023/03/31 00:43:24;;;;;;;59.97;3.83;;;12.60;1.00;;;;;;5073726;28;20483;-69
2023/03/31 00:45:51;;;;;;;59.20;3.70;;;12.60;1.00;;;;;;5073761;28;20458;-69
2023/03/31 00:48:22;;;;;;;63.70;3.93;;;12.60;1.00;;;;;;5073361;28;20472;-69
2023/03/31 00:50:53;;;;;;;61.80;4.50;;;12.60;1.00;;;;;;5073451;28;20467;-69
2023/03/31 00:53:25;;;;;;;58.70;3.80;;;12.50;1.00;;;;;;5072903;28;20446;-69
2023/03/31 00:55:54;;;;;;;60.40;4.30;;;12.50;1.00;;;;;;5073614;28;20929;-69
2023/03/31 00:58:26;;;;;;;62.60;4.63;;;12.50;1.00;;;;;;5073263;28;20478;-68
2023/03/31 01:00:55;;;;;;;59.27;3.70;;;12.50;1.00;;;;;;5073107;28;20483;-69
2023/03/31 01:03:22;;;;;;;61.53;4.80;;;12.50;1.00;;;;;;5073110;28;20481;-69
2023/03/31 01:05:53;;;;;;;61.20;4.00;;;12.40;1.00;;;;;;5073202;28;21027;-69
2023/03/31 01:08:25;;;;;;;61.77;5.23;;;12.40;1.00;;;;;;5073163;28;20841;-69
2023/03/31 01:10:55;;;;;;;63.83;3.90;;;12.40;1.00;;;;;;5072983;28;20447;-69
2023/03/31 01:13:23;;;;;;;59.83;3.77;;;12.50;1.00;;;;;;5073086;28;20448;-68
2023/03/31 01:15:50;;;;;;;63.30;4.60;;;12.60;1.00;;;;;;5073196;28;20455;-69
2023/03/31 01:18:20;;;;;;;63.80;4.37;;;12.70;1.00;;;;;;5072991;28;20463;-69
2023/03/31 01:21:05;;;;;;;60.50;3.57;;;12.90;1.00;;;;;;5072784;28;20451;-69
2023/03/31 01:23:48;;;;;;;62.63;4.43;;;13.00;1.00;;;;;;5070711;28;21006;-69
2023/03/31 01:26:43;;;;;;;60.53;3.60;;;13.10;1.00;;;;;;5072860;28;20818;-69
2023/03/31 01:29:24;;;;;;;64.40;4.33;;;13.20;1.00;;;;;;5072335;28;20453;-69
2023/03/31 01:32:24;;;;;;;63.90;4.13;;;13.30;1.00;;;;;;5072896;28;20463;-69
2023/03/31 01:35:09;;;;;;;63.43;3.90;;;13.50;1.00;;;;;;5068904;28;20464;-69
2023/03/31 01:38:09;;;;;;;61.60;3.87;;;13.60;1.00;;;;;;5072378;28;20458;-69
2023/03/31 01:40:58;;;;;;;59.87;3.67;;;13.80;1.00;;;;;;5072512;28;20446;-68
2023/03/31 01:43:30;;;;;;;63.17;3.50;;;13.90;1.00;;;;;;5072464;28;20857;-69
2023/03/31 01:46:02;;;;;;;58.80;3.40;;;13.90;1.00;;;;;;5072393;28;20538;-69
2023/03/31 01:48:42;;;;;;;60.87;3.43;;;13.90;1.00;;;;;;5072086;28;20471;-69
2023/03/31 01:51:15;;;;;;;64.40;3.97;;;13.90;1.00;;;;;;5072422;28;20451;-69
2023/03/31 01:53:50;;;;;;;63.70;3.90;;;13.90;1.00;;;;;;5072333;28;20444;-69
2023/03/31 01:56:22;;;;;;;61.70;3.60;;;13.80;1.00;;;;;;5072115;28;20447;-69
2023/03/31 01:58:53;;;;;;;65.23;4.30;;;13.70;1.00;;;;;;5071812;28;20558;-69
2023/03/31 02:01:25;;;;;;;60.73;3.70;;;13.70;1.00;;;;;;5072199;28;20454;-69
2023/03/31 02:03:57;;;;;;;60.67;3.90;;;13.50;1.00;;;;;;5071246;28;20487;-69
2023/03/31 02:06:29;;;;;;;61.17;3.87;;;13.40;1.00;;;;;;5072124;28;20454;-69
2023/03/31 02:09:00;;;;;;;59.30;3.90;;;13.40;1.00;;;;;;5071546;28;20482;-69
2023/03/31 02:11:30;;;;;;;62.17;3.90;;;13.20;1.00;;;;;;5071980;28;20452;-69
2023/03/31 02:14:01;;;;;;;66.40;3.40;;;13.10;1.00;;;;;;5071964;28;20534;-69
2023/03/31 02:16:32;;;;;;;64.70;4.57;;;13.10;1.00;;;;;;5071999;28;20451;-69
2023/03/31 02:19:04;;;;;;;60.40;4.30;;;13.00;1.00;;;;;;5071400;28;20993;-68
2023/03/31 02:21:33;;;;;;;65.20;4.13;;;13.00;1.00;;;;;;5071796;28;20932;-69
2023/03/31 02:24:01;;;;;;;60.80;3.53;;;13.10;1.00;;;;;;5071822;28;20483;-69
2023/03/31 02:26:33;;;;;;;59.20;3.63;;;13.10;99.90;;;;;;5071984;28;20458;-69
2023/03/31 02:29:00;;;;;;;61.77;3.93;;;13.20;99.90;;;;;;5071466;28;20467;-69
2023/03/31 02:31:36;;;;;;;61.33;3.80;;;13.30;99.90;;;;;;5071749;28;20632;-69
2023/03/31 02:34:03;;;;;;;61.37;3.80;;;13.40;99.90;;;;;;5072016;28;20450;-69
2023/03/31 02:36:30;;;;;;;59.87;3.33;;;13.20;99.90;;;;;;5071803;28;20452;-69
2023/03/31 02:39:02;;;;;;;62.47;4.00;;;12.90;1.00;;;;;;5071378;28;20542;-69
2023/03/31 02:41:31;;;;;;;61.30;4.63;;;12.70;1.00;;;;;;5071646;28;20439;-68
2023/03/31 02:43:57;;;;;;;60.80;3.53;;;12.70;1.00;;;;;;5071516;28;20486;-69
2023/03/31 02:46:25;;;;;;;60.90;4.10;;;12.70;1.00;;;;;;5071412;28;20443;-69
2023/03/31 02:48:54;;;;;;;60.30;3.90;;;12.60;1.00;;;;;;5071572;28;20846;-69
2023/03/31 02:51:52;;;;;;;59.57;3.10;;;12.60;1.00;;;;;;5071803;28;20443;-69
2023/03/31 02:54:42;;;;;;;61.07;3.30;;;12.60;1.00;;;;;;5071547;28;20447;-69
2023/03/31 02:57:20;;;;;;;63.73;4.00;;;12.60;1.00;;;;;;5071800;28;20476;-69
2023/03/31 03:00:00;;;;;;;60.50;3.43;;;12.60;1.00;;;;;;5071270;28;20450;-69
2023/03/31 03:02:37;;;;;;;60.50;3.57;;;12.70;1.00;;;;;;5071590;28;20451;-69
2023/03/31 03:05:17;;;;;;;61.03;4.17;;;12.80;1.00;;;;;;5071556;28;20932;-69
2023/03/31 03:07:50;;;;;;;61.43;3.73;;;12.80;1.00;;;;;;5071737;28;20471;-69
2023/03/31 03:10:24;;;;;;;60.47;4.20;;;12.70;1.00;;;;;;5071145;28;20448;-69
2023/03/31 03:12:58;;;;;;;59.60;4.00;;;12.70;1.00;;;;;;5071380;28;20443;-69
2023/03/31 03:15:28;;;;;;;62.60;4.10;;;12.70;1.00;;;;;;5073127;28;20450;-69
2023/03/31 03:17:56;;;;;;;61.03;4.90;;;12.70;1.00;;;;;;5075530;28;20872;-69
2023/03/31 03:20:23;;;;;;;60.77;3.97;;;12.90;1.00;;;;;;5075228;28;20442;-69
2023/03/31 03:22:50;;;;;;;66.13;4.40;;;13.00;1.00;;;;;;5075472;28;20445;-69
2023/03/31 03:25:19;;;;;;;60.30;4.47;;;13.00;1.00;;;;;;5074956;28;20455;-69
2023/03/31 03:27:46;;;;;;;63.57;4.80;;;12.90;1.00;;;;;;5075060;28;20474;-69
2023/03/31 03:30:15;;;;;;;60.70;3.80;;;12.90;1.00;;;;;;5075059;28;20463;-69
2023/03/31 03:32:41;;;;;;;63.87;5.10;;;12.80;1.00;;;;;;5075035;28;20458;-69
2023/03/31 03:35:09;;;;;;;59.67;4.23;;;12.70;1.00;;;;;;5075352;28;20482;-69
2023/03/31 03:37:36;;;;;;;63.13;4.00;;;12.70;1.00;;;;;;5074853;28;20991;-69
2023/03/31 03:40:04;;;;;;;62.00;4.17;;;12.70;1.00;;;;;;5074618;28;20447;-69
2023/03/31 03:42:32;;;;;;;58.80;3.93;;;12.70;1.00;;;;;;5074680;28;20808;-68
2023/03/31 03:44:58;;;;;;;59.67;4.20;;;12.60;1.00;;;;;;5074917;28;20486;-69
2023/03/31 03:47:27;;;;;;;60.80;4.37;;;12.50;1.00;;;;;;5074735;28;20481;-69
2023/03/31 03:49:53;;;;;;;65.50;4.27;;;12.40;1.00;;;;;;5074394;28;20443;-69
2023/03/31 03:52:20;;;;;;;61.50;4.30;;;12.40;1.00;;;;;;5074717;28;20457;-69
2023/03/31 03:54:47;;;;;;;60.17;4.53;;;12.50;1.00;;;;;;5074580;28;20489;-69
2023/03/31 03:57:15;;;;;;;62.50;4.57;;;12.50;1.00;;;;;;5074302;28;20513;-68
2023/03/31 03:59:42;;;;;;;61.53;4.40;;;12.50;1.00;;;;;;5074238;28;20459;-69
2023/03/31 04:02:09;;;;;;;62.70;4.57;;;12.40;1.00;;;;;;5074598;28;20443;-69
2023/03/31 04:04:37;;;;;;;61.07;4.90;;;12.30;1.00;;;;;;5074453;28;20574;-69
2023/03/31 04:07:04;;;;;;;62.47;3.97;;;12.30;1.00;;;;;;5074331;28;20474;-67
2023/03/31 04:09:31;;;;;;;61.13;4.47;;;12.40;1.00;;;;;;5073782;28;20447;-67
2023/03/31 04:11:58;;;;;;;61.87;4.30;;;12.30;1.00;;;;;;5074168;28;20995;-67
2023/03/31 04:14:24;;;;;;;59.77;4.20;;;12.20;1.00;;;;;;5074158;28;20538;-68
2023/03/31 04:16:55;;;;;;;58.60;4.40;;;12.00;1.00;;;;;;5074493;28;20443;-68
2023/03/31 04:19:24;;;;;;;59.43;4.37;;;11.80;1.00;;;;;;5073895;28;20885;-69
2023/03/31 04:21:57;;;;;;;61.30;4.03;;;11.60;1.00;;;;;;5074124;28;20546;-67
2023/03/31 04:24:29;;;;;;;59.80;4.43;;;11.60;1.00;;;;;;5073934;28;20508;-68
2023/03/31 04:26:56;;;;;;;64.80;4.30;;;11.50;1.00;;;;;;5073041;28;20463;-69
2023/03/31 04:29:25;;;;;;;59.90;4.03;;;11.50;1.00;;;;;;5073639;28;20525;-68
2023/03/31 04:31:53;;;;;;;59.03;4.20;;;11.60;1.00;;;;;;5073866;28;20801;-68
2023/03/31 04:34:25;;;;;;;59.97;4.27;;;11.50;1.00;;;;;;5073801;28;20454;-68
2023/03/31 04:36:54;;;;;;;68.77;4.67;;;11.60;1.00;;;;;;5074000;28;20447;-68
2023/03/31 04:39:25;;;;;;;63.90;5.53;;;11.60;1.00;;;;;;5073639;28;20831;-68
2023/03/31 04:41:52;;;;;;;63.90;4.90;;;11.70;1.00;;;;;;5073902;28;20486;-67
2023/03/31 04:44:19;;;;;;;61.57;4.63;;;11.70;1.00;;;;;;5073639;28;20479;-68
2023/03/31 04:46:46;;;;;;;62.67;5.27;;;11.70;1.00;;;;;;5073619;28;20447;-67
2023/03/31 04:49:12;;;;;;;62.63;5.17;;;11.80;1.00;;;;;;5073151;28;20447;-68
2023/03/31 04:51:39;;;;;;;61.40;4.40;;;11.70;1.00;;;;;;5073713;28;20469;-67
2023/03/31 04:54:08;;;;;;;61.87;4.80;;;11.80;1.00;;;;;;5073622;28;20439;-68
2023/03/31 04:56:34;;;;;;;60.77;4.60;;;11.90;1.00;;;;;;5073842;28;20451;-68
2023/03/31 04:59:02;;;;;;;65.07;5.50;;;11.90;1.00;;;;;;5072879;28;20928;-68
2023/03/31 05:01:31;;;;;;;59.80;4.27;;;11.80;1.00;;;;;;5073278;28;20454;-67
2023/03/31 05:03:58;;;;;;;64.43;4.87;;;11.80;1.00;;;;;;5073380;28;20487;-67
2023/03/31 05:06:25;;;;;;;65.80;5.07;;;11.80;1.00;;;;;;5073354;28;20454;-67
2023/03/31 05:08:52;;;;;;;63.60;5.57;;;11.70;1.00;;;;;;5072982;28;20467;-67
2023/03/31 05:11:20;;;;;;;63.30;5.37;;;11.70;1.00;;;;;;5073411;28;20444;-67
2023/03/31 05:13:47;;;;;;;66.27;5.63;;;11.80;1.00;;;;;;5073102;28;20537;-68
2023/03/31 05:16:15;;;;;;;63.67;5.60;;;11.80;1.00;;;;;;5072901;28;20449;-67
2023/03/31 05:18:42;;;;;;;61.47;4.87;;;11.90;1.00;;;;;;5072881;28;20478;-67
2023/03/31 05:21:11;;;;;;;62.17;5.20;;;11.90;1.00;;;;;;5073111;28;20454;-67
2023/03/31 05:23:38;;;;;;;63.40;5.40;;;12.00;1.00;;;;;;5072868;28;20466;-67
2023/03/31 05:26:05;;;;;;;61.77;4.90;;;12.10;1.00;;;;;;5072793;28;20546;-67
2023/03/31 05:28:33;;;;;;;61.30;4.80;;;12.20;1.00;;;;;;5072398;28;20467;-67
2023/03/31 05:31:00;;;;;;;61.60;5.20;;;12.30;1.00;;;;;;5072690;28;20450;-66
2023/03/31 05:33:27;;;;;;;64.50;5.93;;;12.40;1.00;;;;;;5072898;28;20451;-66
2023/03/31 05:35:54;;;;;;;64.60;5.20;;;12.40;1.00;;;;;;5072806;28;20453;-66
2023/03/31 05:38:21;;;;;;;62.33;5.60;;;12.30;1.00;;;;;;5072495;28;20494;-66
2023/03/31 05:40:48;;;;;;;61.30;5.70;;;12.20;1.00;;;;;;5072416;28;20453;-66
2023/03/31 05:43:15;;;;;;;61.93;5.30;;;12.10;1.00;;;;;;5072473;28;20451;-66
2023/03/31 05:45:43;;;;;;;62.70;6.17;;;12.00;1.00;;;;;;5072618;28;20485;-66
2023/03/31 05:48:10;;;;;;;62.77;5.50;;;11.90;1.00;;;;;;5072496;28;20917;-66
2023/03/31 05:50:37;;;;;;;64.93;5.87;;;11.80;1.00;;;;;;5072328;28;20443;-67
2023/03/31 05:53:03;;;;;;;63.93;6.37;;;11.60;1.00;;;;;;5072461;28;20478;-67
2023/03/31 05:55:30;;;;;;;63.60;6.50;;;11.40;1.00;;;;;;5072339;28;20439;-67
2023/03/31 05:57:57;;;;;;;62.27;7.00;;;11.40;1.00;;;;;;5071957;28;20520;-67
2023/03/31 06:00:24;;;;;;;63.63;6.60;;;11.30;1.00;;;;;;5072220;28;20457;-67
2023/03/31 06:02:52;;;;;;;66.50;7.40;;;11.20;1.00;;;;;;5072330;28;20473;-66
2023/03/31 06:05:19;;;;;;;64.03;6.90;;;11.20;1.00;;;;;;5072113;28;20487;-67
2023/03/31 06:07:46;;;;;;;62.90;6.87;;;11.20;1.00;;;;;;5072041;28;20475;-67
2023/03/31 06:10:13;;;;;;;66.20;6.70;;;11.20;1.00;;;;;;5071842;28;20455;-68
2023/03/31 06:12:39;;;;;;;65.40;6.73;;;11.30;1.00;;;;;;5071951;28;20454;-68
2023/03/31 06:15:07;;;;;;;64.80;6.73;;;11.30;1.00;;;;;;5072280;28;20835;-69
2023/03/31 06:17:34;;;;;;;61.93;6.90;;;11.40;1.00;;;;;;5072012;28;20467;-68
2023/03/31 06:20:04;;;;;;;64.43;6.73;;;11.40;1.00;;;;;;5071722;28;20626;-69
2023/03/31 06:22:31;;;;;;;66.00;7.13;;;11.50;1.00;;;;;;5071990;28;20501;-68
2023/03/31 06:24:58;;;;;;;65.33;7.23;;;11.50;1.00;;;;;;5071605;28;20506;-68
2023/03/31 06:27:25;;;;;;;63.03;6.83;;;11.60;1.00;;;;;;5071672;28;20470;-68
2023/03/31 06:29:51;;;;;;;64.77;7.00;;;11.50;1.00;;;;;;5071662;28;20453;-68
2023/03/31 06:32:18;;;;;;;68.33;8.17;;;11.60;1.00;;;;;;5071798;28;20457;-68
2023/03/31 06:34:45;;;;;;;61.97;6.90;;;11.60;1.00;;;;;;5069431;28;20845;-68
2023/03/31 06:37:13;;;;;;;63.27;7.00;;;11.70;1.00;;;;;;5071185;28;20510;-68
2023/03/31 06:39:40;;;;;;;64.90;6.83;;;11.70;1.00;;;;;;5071192;28;20453;-68
2023/03/31 06:42:07;;;;;;;67.47;8.03;;;11.70;1.00;;;;;;5071681;28;20451;-69
2023/03/31 06:44:34;;;;;;;65.70;7.30;;;11.70;1.00;;;;;;5071740;28;20825;-69
2023/03/31 06:47:00;;;;;;;64.97;7.10;;;11.80;1.00;;;;;;5071721;28;20444;-68
2023/03/31 06:49:27;;;;;;;64.70;7.17;;;11.80;1.00;;;;;;5070976;28;20454;-68
2023/03/31 06:51:54;;;;;;;65.63;7.23;;;11.60;1.00;;;;;;5071641;28;20470;-69
2023/03/31 06:54:22;;;;;;;64.30;7.90;;;11.50;1.00;;;;;;5071504;28;20462;-68
2023/03/31 06:56:49;;;;;;;65.63;9.00;;;11.20;1.00;;;;;;5071492;28;20501;-68
2023/03/31 06:59:16;;;;;;;68.20;8.47;;;11.10;1.00;;;;;;5071159;28;20927;-68
2023/03/31 07:01:44;;;;;;;71.57;9.60;;;11.10;1.00;;;;;;5071713;28;20447;-68
2023/03/31 07:04:11;;;;;;;70.07;8.20;;;11.20;1.00;;;;;;5071480;28;20447;-68
2023/03/31 07:06:38;;;;;;;70.27;9.70;;;11.10;1.00;;;;;;5071468;28;20450;-68
2023/03/31 07:09:05;;;;;;;67.27;9.00;;;11.00;1.00;;;;;;5071040;28;20802;-68
2023/03/31 07:11:33;;;;;;;69.20;9.40;;;10.90;1.00;;;;;;5071663;28;20447;-67
2023/03/31 07:14:00;;;;;;;70.57;8.50;;;10.80;1.00;;;;;;5071557;28;20452;-68
2023/03/31 07:16:27;;;;;;;68.67;8.70;;;10.70;1.00;;;;;;5071485;28;20453;-68
2023/03/31 07:18:58;;;;;;;68.30;8.53;;;10.60;1.00;;;;;;5070431;28;20466;-68
2023/03/31 07:21:25;;;;;;;72.13;8.30;;;10.60;1.00;;;;;;5071172;28;20454;-69
2023/03/31 07:23:52;;;;;;;68.83;8.33;;;10.60;1.00;;;;;;5071389;28;20850;-68
2023/03/31 07:26:19;;;;;;;63.73;6.90;;;10.70;1.00;;;;;;5071485;28;20491;-69
2023/03/31 07:28:47;;;;;;;64.70;6.67;;;10.70;1.00;;;;;;5071101;28;20848;-68
2023/03/31 07:31:14;;;;;;;61.70;5.90;;;10.70;1.00;;;;;;5071385;28;20444;-69
2023/03/31 07:33:41;;;;;;;63.10;6.27;;;10.80;1.00;;;;;;5071283;28;20448;-69
2023/03/31 07:36:09;;;;;;;63.97;5.70;;;10.80;1.00;;;;;;5071381;28;20439;-68
2023/03/31 07:38:36;;;;;;;68.47;5.90;;;10.80;1.00;;;;;;5070966;28;20475;-69
2023/03/31 07:41:03;;;;;;;62.10;5.27;;;10.90;1.00;;;;;;5071255;28;20444;-68
2023/03/31 07:43:30;;;;;;;62.60;5.80;;;11.00;1.00;;;;;;5071145;28;20534;-68
2023/03/31 07:45:58;;;;;;;61.57;5.77;;;11.10;1.00;;;;;;5071060;28;20843;-69
2023/03/31 07:48:27;;;;;;;61.80;6.10;;;11.30;1.00;;;;;;5070885;28;20467;-69
2023/03/31 07:50:54;;;;;;;64.10;5.23;;;11.40;1.00;;;;;;5071115;28;20878;-68
2023/03/31 07:53:21;;;;;;;61.80;5.30;;;11.40;1.00;;;;;;5071252;28;20443;-69
2023/03/31 07:55:48;;;;;;;61.90;4.70;;;11.50;1.00;;;;;;5071130;28;20443;-69
2023/03/31 07:58:15;;;;;;;60.20;4.33;;;11.50;1.00;;;;;;5070947;28;20474;-68
2023/03/31 08:00:41;;;;;;;60.40;4.90;;;11.70;1.00;;;;;;5070794;28;20872;-68
2023/03/31 08:03:09;;;;;;;68.27;4.80;;;11.80;1.00;;;;;;5073487;28;20814;-69
2023/03/31 08:05:36;;;;;;;66.90;4.67;;;11.80;1.00;;;;;;5074565;28;20510;-68
2023/03/31 08:08:04;;;;;;;65.95;5.10;;;11.80;1.00;;;;;;5071941;28;20533;-68
2023/03/31 08:10:31;;;;;;;59.87;4.10;;;11.90;1.00;;;;;;5072960;28;20205;-69
2023/03/31 08:12:57;;;;;;;59.27;4.20;;;11.80;1.00;;;;;;5074292;28;20447;-68
2023/03/31 08:15:24;;;;;;;59.90;4.07;;;11.80;1.00;;;;;;5074193;28;20454;-68
2023/03/31 08:17:52;;;;;;;61.47;3.47;;;11.80;1.00;;;;;;5074223;28;20554;-68
2023/03/31 08:20:20;;;;;;;60.27;3.63;;;11.90;1.00;;;;;;5074009;28;20734;-70
2023/03/31 08:22:47;;;;;;;59.20;3.30;;;12.00;1.00;;;;;;5074230;28;20807;-69
2023/03/31 08:25:13;;;;;;;59.00;3.40;;;12.00;1.00;;;;;;5073800;28;20574;-68
2023/03/31 08:27:43;;;;;;;57.97;2.97;;;12.10;1.00;;;;;;5074085;28;20471;-68
2023/03/31 08:30:12;;;;;;;57.37;2.97;;;12.10;1.00;;;;;;5073568;28;21035;-68
2023/03/31 08:32:38;;;;;;;62.73;3.10;;;12.20;1.00;;;;;;5074096;28;20474;-69
2023/03/31 08:35:07;;;;;;;62.23;3.50;;;12.40;1.00;;;;;;5074046;28;20448;-68
2023/03/31 08:37:36;;;;;;;58.40;2.90;;;;;;;;;;5073920;28;20463;-68
2023/03/31 08:40:04;;;;;;;58.97;2.90;;;;;;;;;;5073560;28;20871;-68
2023/03/31 08:42:36;;;;;;;57.70;2.90;;;;;;;;;;5073764;28;20851;-68
2023/03/31 08:45:06;;;;;;;59.17;2.80;;;;;;;;;;5073910;28;20834;-68
2023/03/31 08:47:35;;;;;;;57.87;2.40;;;;;;;;;;5073529;28;20498;-69
2023/03/31 08:50:06;;;;;;;59.17;3.10;;;;;;;;;;5073382;28;20448;-69
2023/03/31 08:52:35;;;;;;;58.47;3.03;;;;;;;;;;5073778;28;20447;-69
2023/03/31 08:55:05;;;;;;;60.30;3.40;;;;;;;;;;5073409;28;20446;-69
2023/03/31 08:57:36;;;;;;;58.67;3.20;;;;;;;;;;5073698;28;20549;-69
2023/03/31 09:00:05;;;;;;;58.50;2.83;;;;;;;;;;5073406;28;20459;-69
2023/03/31 09:02:35;;;;;;;59.67;4.00;;;;;;;;;;5073436;28;20448;-68
2023/03/31 09:05:20;;;;;;;57.97;3.10;;;;;;;;;;5073375;28;20490;-68
2023/03/31 09:07:51;;;;;;;58.97;3.30;;;;;;;;;;5063156;28;20471;-69
2023/03/31 09:10:27;;;;;;;58.47;3.10;;;;;;;;;;5072958;28;20944;-68
2023/03/31 09:12:56;;;;;;;58.80;3.00;;;;;;;;;;5072884;28;20451;-69
2023/03/31 09:15:26;;;;;;;58.37;3.20;;;;;;;;;;5073332;28;20436;-69
2023/03/31 09:17:54;;;;;;;58.70;3.37;;;;;;;;;;5072977;28;20459;-69
2023/03/31 09:20:23;;;;;;;59.63;3.40;;;;;;;;;;5072728;28;20963;-69
2023/03/31 09:22:53;;;;;;;63.67;3.60;;;;;;;;;;5073095;28;20449;-69
2023/03/31 09:25:21;;;;;;;58.67;3.00;;;;;;;;;;5072811;28;20838;-68
2023/03/31 09:27:50;;;;;;;58.57;2.93;;;;;;;;;;5072842;28;21017;-68
2023/03/31 09:30:20;;;;;;;59.63;3.37;;;;;;;;;;5072468;28;20454;-68
2023/03/31 09:32:48;;;;;;;62.93;4.10;;;;;;;;;;5072951;28;20455;-68
2023/03/31 09:35:17;;;;;;;58.60;2.90;;;;;;;;;;5072836;28;20450;-68
2023/03/31 09:37:44;;;;;;;60.17;3.13;;;;;;;;;;5072698;28;20554;-68
2023/03/31 09:40:16;;;;;;;59.27;3.13;;;;;;;;;;5072404;28;20477;-68
2023/03/31 09:42:44;;;;;;;59.80;3.30;;;;;;;;;;5072784;28;20509;-69
2023/03/31 09:45:16;;;;;;;63.10;3.20;;;;;;;;;;5072542;28;20920;-69
2023/03/31 09:47:44;;;;;;;59.77;3.20;;;;;;;;;;5072590;28;20475;-69
2023/03/31 09:50:11;;;;;;;59.50;3.07;;;;;;;;;;5072508;28;20451;-68
2023/03/31 09:52:41;;;;;;;59.20;3.13;;;;;;;;;;5072565;28;20455;-69
2023/03/31 09:55:16;;;;;;;61.20;3.43;;;;;;;;;;5072396;28;20443;-69
2023/03/31 09:57:43;;;;;;;60.10;3.10;;;;;;;;;;5072217;28;20474;-68
2023/03/31 10:00:16;;;;;;;61.80;3.53;;;;;;;;;;5072253;28;20454;-68
2023/03/31 10:02:45;;;;;;;58.97;3.20;;;;;;;;;;5072416;28;20447;-69
2023/03/31 10:05:29;;;;;;;63.37;3.73;;;;;;;;;;5072084;28;20479;-66
2023/03/31 10:08:15;;;;;;;59.93;3.10;;;;;;;;;;5071791;28;20463;-68
2023/03/31 10:10:45;;;;;;;62.00;3.40;;;;;;;;;;5072080;28;20462;-67
2023/03/31 10:13:14;;;;;;;58.17;2.90;;;;;;;;;;5069658;28;20458;-67
2023/03/31 10:15:43;;;;;;;59.27;3.20;;;;;;;;;;5071704;28;20447;-67
2023/03/31 10:18:14;;;;;;;60.60;3.00;;;;;;;;;;5071569;28;20469;-67
2023/03/31 10:20:44;;;;;;;59.57;3.40;;;;;;;;;;5071606;28;20486;-67
2023/03/31 10:23:16;;;;;;;59.83;3.20;;;;;;;;;;5071768;28;20509;-66
2023/03/31 10:25:44;;;;;;;60.10;3.60;;;;;;;;;;5070761;28;20487;-68
2023/03/31 10:28:13;;;;;;;61.10;3.10;;;;;;;;;;5071486;28;20554;-67
2023/03/31 10:30:40;;;;;;;61.90;3.47;;;;;;;;;;5068468;28;20812;-67
2023/03/31 10:33:12;;;;;;;58.90;3.10;;;;;;;;;;5070972;28;20966;-68
2023/03/31 10:35:40;;;;;;;60.00;2.93;;;;;;;;;;5071394;28;20444;-67
2023/03/31 10:38:08;;;;;;;59.73;2.90;;;;;;;;;;5071295;28;20475;-67
2023/03/31 10:40:36;;;;;;;59.30;3.10;;;;;;;;;;5070928;28;20450;-67
2023/03/31 10:43:06;;;;;;;59.30;2.50;;;;;;;;;;5071342;28;20460;-67
2023/03/31 10:45:37;;;;;;;60.17;3.40;;;;;;;;;;5071117;28;20481;-67
2023/03/31 10:48:05;;;;;;;60.80;3.40;;;;;;;;;;5071288;28;20463;-67
2023/03/31 10:50:35;;;;;;;58.83;3.03;;;;;;;;;;5071226;28;20530;-68
2023/03/31 10:53:03;;;;;;;58.10;2.90;;;;;;;;;;5071722;28;20447;-68
2023/03/31 10:55:34;;;;;;;60.07;3.20;;;;;;;;;;5071162;28;20989;-67
2023/03/31 10:58:06;;;;;;;60.97;3.50;;;;;;;;;;5071042;28;20557;-67
2023/03/31 11:00:35;;;;;;;59.67;3.30;;;;;;;;;;5070289;28;20863;-67
2023/03/31 11:03:20;;;;;;;58.63;3.10;;;;;;;;;;5070924;28;20541;-67
2023/03/31 11:05:51;;;;;;;62.90;4.00;;;;;;;;;;5071340;28;20514;-67
2023/03/31 11:08:24;;;;;;;63.00;3.43;;;;;;;;;;5071191;28;20517;-67
2023/03/31 11:11:01;;;;;;;59.70;3.50;;;;;;;;;;5071164;28;20936;-67
2023/03/31 11:13:32;;;;;;;60.40;3.80;;;;;;;;;;5071539;28;20449;-67
2023/03/31 11:16:06;;;;;;;59.73;3.37;;;;;;;;;;5071471;28;20443;-67
2023/03/31 11:18:40;;;;;;;60.47;3.40;;;;;;;;;;5071649;28;20571;-67
2023/03/31 11:21:14;;;;;;;59.10;3.20;;;;;;;;;;5071601;28;20508;-68
2023/03/31 11:23:42;;;;;;;61.37;3.13;;;;;;;;;;5071168;28;20443;-68
2023/03/31 11:26:11;;;;;;;60.40;3.40;;;;;;;;;;5071404;28;20906;-66
2023/03/31 11:28:44;;;;;;;60.17;2.80;;;;;;;;;;5071001;28;20467;-65
2023/03/31 11:31:22;;;;;;;58.47;2.87;;;;;;;;;;5071612;28;20456;-72
2023/03/31 11:33:57;;;;;;;58.50;3.10;;;;;;;;;;5071472;28;20443;-72
2023/03/31 11:36:37;;;;;;;59.00;2.53;;;;;;;;;;5072965;28;20439;-73
2023/03/31 11:39:15;;;;;;;61.00;3.17;;;;;;;;;;5074248;28;20495;-74
2023/03/31 11:41:45;;;;;;;58.57;2.77;;;;;;;;;;5074732;28;20542;-73
2023/03/31 11:44:13;;;;;;;57.40;2.80;;;;;;;;;;5075048;28;20837;-74
2023/03/31 11:46:41;;;;;;;58.30;2.97;;;;;;;;;;5074594;28;20832;-74
2023/03/31 11:49:13;;;;;;;58.70;3.00;;;;;;;;;;5074576;28;20454;-73
2023/03/31 11:51:43;;;;;;;59.17;3.00;;;;;;;;;;5074799;28;20447;-74
2023/03/31 11:54:14;;;;;;;58.60;3.33;;;;;;;;;;5074703;28;20475;-74
2023/03/31 11:56:42;;;;;;;58.77;2.93;;;;;;;;;;5075356;28;20455;-73
2023/03/31 11:59:12;;;;;;;59.80;3.07;;;;;;;;;;5074081;28;20481;-74
2023/03/31 12:01:43;;;;;;;61.37;2.70;;;;;;;;;;5074572;28;20443;-73
2023/03/31 12:04:12;;;;;;;59.10;2.90;;;;;;;;;;5074585;28;20452;-74
2023/03/31 12:06:41;;;;;;;58.97;2.90;;;;;;;;;;5074246;28;20487;-74
2023/03/31 12:09:13;;;;;;;58.20;2.80;;;;;;;;;;5074036;28;20458;-73
2023/03/31 12:11:42;;;;;;;58.00;2.40;;;;;;;;;;5074337;28;20447;-72
2023/03/31 12:14:18;;;;;;;57.80;2.40;;;;;;;;;;5074233;28;20455;-73
2023/03/31 12:16:46;;;;;;;57.53;2.30;;;;;;;;;;5074377;28;20530;-73
2023/03/31 12:19:16;;;;;;;59.10;2.70;;;;;;;;;;5073836;28;20955;-71
2023/03/31 12:21:45;;;;;;;57.60;2.40;;;;;;;;;;5074090;28;20447;-74
2023/03/31 12:24:14;;;;;;;57.57;2.40;;;;;;;;;;5072698;28;20963;-72
2023/03/31 12:26:47;;;;;;;57.77;2.60;;;;;;;;;;5073087;28;20491;-73
2023/03/31 12:29:19;;;;;;;57.43;2.60;;;;;;;;;;5073626;28;20461;-74
2023/03/31 12:31:47;;;;;;;58.50;2.53;;;;;;;;;;5073515;28;20937;-75
2023/03/31 12:34:15;;;;;;;60.73;2.73;;;;;;;;;;5073640;28;20944;-76
2023/03/31 12:36:48;;;;;;;57.20;1.97;;;;;;;;;;5074023;28;20449;-74
2023/03/31 12:39:23;;;;;;;57.27;2.43;;;;;;;;;;5073652;28;20451;-74
2023/03/31 12:41:59;;;;;;;58.17;2.40;;;;;;;;;;5073677;28;20454;-73
2023/03/31 12:44:32;;;;;;;58.17;2.60;;;;;;;;;;5073669;28;20995;-75
2023/03/31 12:47:04;;;;;;;58.50;2.63;;;;;;;;;;5073358;28;20482;-76
2023/03/31 12:49:36;;;;;;;58.57;2.50;;;;;;;;;;5073012;28;20459;-76
2023/03/31 12:52:05;;;;;;;58.17;2.30;;;;;;;;;;5073768;28;20474;-76
2023/03/31 12:54:43;;;;;;;58.03;2.40;;;;;;;;;;5073524;28;20455;-76
2023/03/31 12:57:16;;;;;;;57.90;2.40;;;;;;;;;;5073403;28;20991;-75
2023/03/31 12:59:43;;;;;;;58.00;2.40;;;;;;;;;;5073099;28;20494;-75
2023/03/31 13:02:24;;;;;;;57.40;2.60;;;;;;;;;;5073686;28;20443;-76
2023/03/31 13:04:52;;;;;;;58.50;2.63;;;;;;;;;;5071112;28;20462;-76
2023/03/31 13:07:49;;;;;;;57.20;2.30;;;;;;;;;;5073033;28;20586;-77
2023/03/31 13:10:30;;;;;;;57.77;2.40;;;;;;;;;;5011174;28;20460;-77
2023/03/31 13:13:01;;;;;;;59.77;2.90;;;;;;;;;;5064395;28;20458;-77
2023/03/31 13:15:29;;;;;;;57.90;2.60;;;;;;;;;;5073440;28;20450;-75
2023/03/31 13:17:57;;;;;;;59.20;3.00;;;;;;;;;;5073308;28;20467;-76
2023/03/31 13:20:31;;;;;;;59.93;3.00;;;;;;;;;;5072980;28;20443;-75
2023/03/31 13:23:02;;;;;;;60.90;3.10;;;;;;;;;;5072882;28;20454;-72
2023/03/31 13:25:43;;;;;;;59.90;3.20;;;;;;;;;;5073082;28;20451;-75
2023/03/31 13:28:12;;;;;;;58.67;2.50;;;;;;;;;;5072894;28;21066;-76
2023/03/31 13:30:53;;;;;;;59.27;3.20;;;;;;;;;;5072871;28;20459;-76
2023/03/31 13:33:21;;;;;;;57.43;2.60;;;;;;;;;;5073124;28;20453;-74
2023/03/31 13:35:50;;;;;;;57.90;2.30;;;;;;;;;;5072780;28;20478;-75
2023/03/31 13:38:23;;;;;;;57.47;2.43;;;;;;;;;;5072491;28;20475;-74